map of GNV home
GNV - Airport
Location
City:  Gainesville, Florida, United States
Name:Gainesville Regional
ICAO:KGNV
IATA:GNV
FAA LID:GNV

Details
Type:Airport (Part 139 Class I)
Use:Public/Civil
Latitude:2941'24"N (29.690056)
Longitude:8216'18"W (-82.271777)
Datum:WGS 1984
Elevation:151 ft (46 m)
Variation:5.99W (WMM2015 magnetic declination)
-0.09 annual change
Runways:2
Longest:7504 × 150 ft (2287 × 45.5 m), paved

Time
Time Zone:UTC-5 (DST-4)
Local Time:

Weather
METAR:KGNV 250853Z AUTO 00000KT 10SM FEW090 18/17 A3016 RMK AO2 SLP212 T01830172 56011
TAF:KGNV 250531Z 2506/2606 18003KT P6SM SCT030 BKN060
TEMPO 2506/2509 BKN035
FM251400 21008KT P6SM SCT030
FM260000 23004KT P6SM FEW040

Related Locations
Nearby:
Farthest:USL: 11457 mi / 18439 km
Useless Loop, WA, AU

Find:

   beyond  
but within

Other Information
Maps:
Delays:
NOTAMs:
Links:
Sources:

  
flag of United States
flag of Florida
  

Airport Diagram

Airport diagram for GNV

Airport diagram PDF

Sectional Chart

Flight Planning
at skyvector.com

Satellite Image

Google Maps Satellite view

 

Copyright © 2004-2018 Karl L. Swartz. All rights reserved.
The Great Circle Mapper name and logo are trademarks of the Great Circle Mapper.
All other trademarks mentioned herein belong to their respective owners.
Please see credits for attibutions and further copyright information.

  Follow gcmap on Facebook Follow gcmap on Twitter Follow gcmap on Google+ GCmap on LinkedIn

hCard Microformat

Geo Microformat